Time;durP1;ratioP1;P1;durP2;ratioP2;P2;SDS_P1;SDS_P2;PMS_P1;PMS_P2;Temp;Humidity;BMP_temperature;BMP_pressure;BME280_temperature;BME280_humidity;BME280_pressure;Samples;Min_cycle;Max_cycle;Signal;HPM_P1;HPM_P2
2022/03/29 00:00:01;;;;;;;23.42;13.02;;;;;;;13.29;41.27;95169.09;5028122;28;20075;-75
2022/03/29 00:02:26;;;;;;;25.55;12.80;;;;;;;13.25;41.75;95157.56;5029482;28;20034;-75
2022/03/29 00:04:52;;;;;;;35.67;13.68;;;;;;;13.24;41.74;95156.75;5011782;28;20052;-75
2022/03/29 00:07:17;;;;;;;45.08;13.60;;;;;;;13.25;41.91;95160.16;5029537;28;20017;-75
2022/03/29 00:09:43;;;;;;;37.92;14.15;;;;;;;13.15;41.85;95151.09;5029353;28;20459;-75
2022/03/29 00:12:09;;;;;;;35.72;16.08;;;;;;;13.08;42.40;95150.50;5027927;28;20048;-76
2022/03/29 00:14:34;;;;;;;39.13;15.93;;;;;;;13.00;42.65;95142.25;5027645;28;20033;-75
2022/03/29 00:20:21;;;;;;;46.20;17.23;;;;;;;12.89;42.54;95136.91;5029140;28;20051;-75
2022/03/29 00:22:47;;;;;;;27.70;15.18;;;;;;;12.89;42.75;95134.28;5011745;28;20424;-75
2022/03/29 00:25:13;;;;;;;37.22;14.52;;;;;;;12.86;42.13;95124.34;5011471;28;20899;-75
2022/03/29 00:27:39;;;;;;;25.02;14.15;;;;;;;12.85;42.51;95129.75;5010645;28;20040;-75
2022/03/29 00:30:06;;;;;;;23.70;12.60;;;;;;;12.80;42.54;95132.31;5011100;28;20041;-75
2022/03/29 00:32:32;;;;;;;30.60;13.68;;;;;;;12.83;42.33;95124.00;5027729;28;20030;-75
2022/03/29 00:34:57;;;;;;;30.80;14.45;;;;;;;12.86;42.19;95115.72;5011309;28;20026;-75
2022/03/29 00:37:23;;;;;;;31.08;14.30;;;;;;;12.86;42.32;95121.72;5011411;28;20037;-75
2022/03/29 00:39:48;;;;;;;31.58;13.52;;;;;;;12.88;42.27;95116.25;5027904;28;20393;-75
2022/03/29 00:42:14;;;;;;;20.17;11.90;;;;;;;12.86;42.17;95110.50;5029196;28;20037;-75
2022/03/29 00:44:39;;;;;;;30.35;13.05;;;;;;;12.84;42.23;95110.72;5044220;28;20030;-75
2022/03/29 00:47:05;;;;;;;24.67;12.15;;;;;;;12.85;42.53;95111.50;5027574;28;20030;-75
2022/03/29 00:49:30;;;;;;;26.35;11.50;;;;;;;12.85;42.10;95109.72;5010507;28;20040;-75
2022/03/29 00:51:58;;;;;;;24.45;12.52;;;;;;;12.84;42.54;95109.91;5011209;28;20034;-76
2022/03/29 00:54:32;;;;;;;28.65;12.55;;;;;;;12.83;42.63;95105.72;5027203;28;20033;-75
2022/03/29 00:56:58;;;;;;;34.22;17.08;;;;;;;12.84;42.77;95100.25;5011413;28;20037;-76
2022/03/29 00:59:24;;;;;;;31.10;15.32;;;;;;;12.83;42.73;95106.50;5027399;28;20033;-75
2022/03/29 01:01:49;;;;;;;41.03;15.25;;;;;;;12.81;42.86;95103.34;5011506;28;20499;-76
2022/03/29 01:04:15;;;;;;;32.05;12.52;;;;;;;12.74;42.63;95096.72;5011716;28;20025;-75
2022/03/29 01:06:42;;;;;;;23.13;11.38;;;;;;;12.71;42.69;95097.22;4994992;28;20045;-75
2022/03/29 01:09:07;;;;;;;22.30;12.60;;;;;;;12.69;42.92;95088.81;5028459;28;20029;-76
2022/03/29 01:11:33;;;;;;;26.42;12.27;;;;;;;12.66;42.78;95089.28;5031038;28;20099;-75
2022/03/29 01:13:58;;;;;;;26.20;12.35;;;;;;;12.63;42.93;95085.34;5047449;28;20041;-75
2022/03/29 01:19:08;;;;;;;29.33;15.15;;;;;;;12.60;43.34;95076.16;5032079;28;20117;-76
2022/03/29 01:21:34;;;;;;;22.08;11.85;;;;;;;12.54;43.37;95071.91;5014676;28;20037;-77
2022/03/29 01:23:59;;;;;;;30.90;13.27;;;;;;;12.51;43.70;95068.97;5030832;28;20029;-75
2022/03/29 01:26:25;;;;;;;22.77;12.30;;;;;;;12.49;43.59;95069.19;5014099;28;20083;-75
2022/03/29 01:28:50;;;;;;;20.77;12.40;;;;;;;12.45;43.49;95062.88;4997437;28;20374;-75
2022/03/29 01:31:15;;;;;;;27.42;12.98;;;;;;;12.41;43.74;95056.56;5014312;28;20044;-76
2022/03/29 01:33:41;;;;;;;23.60;12.27;;;;;;;12.40;43.64;95060.22;4997659;28;20482;-76
2022/03/29 01:36:06;;;;;;;20.65;12.43;;;;;;;12.40;43.81;95062.81;5013907;28;20062;-75
2022/03/29 01:38:32;;;;;;;21.75;12.27;;;;;;;12.40;43.68;95049.00;5029965;28;20017;-75
2022/03/29 01:41:02;;;;;;;35.95;13.43;;;;;;;12.35;44.22;95052.28;5030470;28;20056;-75
2022/03/29 01:43:28;;;;;;;27.20;13.45;;;;;;;12.29;44.27;95048.03;5031422;28;20037;-76
2022/03/29 01:45:53;;;;;;;33.70;13.35;;;;;;;12.22;44.48;95040.38;5030280;28;20034;-75
2022/03/29 01:48:19;;;;;;;19.52;12.55;;;;;;;12.17;44.89;95042.06;5031353;28;20064;-75
2022/03/29 01:50:45;;;;;;;34.00;13.88;;;;;;;12.14;44.91;95039.94;5030335;28;20033;-75
2022/03/29 01:53:22;;;;;;;21.38;13.75;;;;;;;12.06;44.97;95042.94;5031373;28;20026;-76
2022/03/29 01:55:47;;;;;;;28.98;14.90;;;;;;;11.99;44.99;95030.06;5029659;28;20067;-75
2022/03/29 01:58:12;;;;;;;24.92;14.10;;;;;;;11.92;44.84;95026.81;5013651;28;20038;-75
2022/03/29 02:00:41;;;;;;;36.63;16.23;;;;;;;11.86;45.13;95028.53;5030987;28;20029;-76
2022/03/29 02:03:07;;;;;;;37.20;16.10;;;;;;;11.81;45.43;95025.84;5005617;28;20079;-76
2022/03/29 02:05:33;;;;;;;36.90;16.63;;;;;;;11.80;45.72;95016.44;5013442;28;20038;-75
2022/03/29 02:07:59;;;;;;;45.53;18.38;;;;;;;11.79;45.30;95025.28;5013481;28;20029;-75
2022/03/29 02:10:25;;;;;;;43.78;18.65;;;;;;;11.76;45.70;95012.69;5028910;28;20113;-75
2022/03/29 02:12:51;;;;;;;49.17;18.88;;;;;;;11.64;45.45;95009.34;4997145;28;20029;-76
2022/03/29 02:15:16;;;;;;;34.10;16.13;;;;;;;11.65;45.73;95014.31;5029448;28;20030;-75
2022/03/29 02:17:43;;;;;;;44.75;19.05;;;;;;;11.61;45.75;95004.63;5013183;28;20063;-76
2022/03/29 02:20:08;;;;;;;43.13;18.65;;;;;;;11.57;46.03;95004.28;5028843;28;20048;-75
2022/03/29 02:22:34;;;;;;;45.72;17.38;;;;;;;11.48;45.77;94999.69;5028427;28;20033;-75
2022/03/29 02:24:59;;;;;;;39.97;20.95;;;;;;;11.47;46.16;94996.28;4996725;28;20473;-75
2022/03/29 02:27:25;;;;;;;74.15;32.97;;;;;;;11.37;46.17;95004.69;5031143;28;20044;-76
2022/03/29 02:29:50;;;;;;;87.55;37.55;;;;;;;11.24;45.72;95004.19;5029856;28;20025;-75
2022/03/29 02:32:16;;;;;;;75.43;33.83;;;;;;;11.13;46.54;94997.97;5029832;28;20025;-75
2022/03/29 02:34:41;;;;;;;58.80;29.70;;;;;;;11.08;46.88;94995.28;5029868;28;20037;-75
2022/03/29 02:37:07;;;;;;;66.70;32.05;;;;;;;10.99;47.02;94991.44;5012250;28;20029;-75
2022/03/29 02:39:32;;;;;;;39.50;17.98;;;;;;;10.96;47.19;94990.09;5029344;28;20082;-75
2022/03/29 02:41:57;;;;;;;35.10;16.60;;;;;;;10.96;47.55;94995.28;5012895;28;20034;-76
2022/03/29 02:44:23;;;;;;;45.15;21.25;;;;;;;10.96;47.42;94991.91;5012773;28;20052;-75
2022/03/29 02:46:48;;;;;;;32.90;19.35;;;;;;;10.90;47.84;94987.59;5029827;28;20026;-76
2022/03/29 02:49:14;;;;;;;40.20;19.83;;;;;;;10.89;48.03;94994.59;5029912;28;20041;-75
2022/03/29 02:51:39;;;;;;;50.38;19.33;;;;;;;10.93;48.33;94992.38;5029396;28;20417;-75
2022/03/29 02:54:05;;;;;;;38.67;17.65;;;;;;;10.89;48.32;94988.63;5045810;28;20462;-75
2022/03/29 02:56:30;;;;;;;40.75;19.92;;;;;;;10.95;47.54;94990.31;5012601;28;20037;-75
2022/03/29 02:58:56;;;;;;;78.25;33.30;;;;;;;10.94;47.67;95001.75;5027950;28;20550;-74
2022/03/29 03:01:21;;;;;;;61.50;35.20;;;;;;;10.86;47.86;94997.69;5013048;28;20041;-76
2022/03/29 03:03:47;;;;;;;68.00;36.88;;;;;;;10.80;47.80;94993.41;5029149;28;20029;-76
2022/03/29 03:06:12;;;;;;;68.82;30.10;;;;;;;10.75;48.33;94988.09;5029906;28;20413;-74
2022/03/29 03:08:38;;;;;;;72.80;31.35;;;;;;;10.72;48.45;94985.94;5028715;28;20385;-75
2022/03/29 03:11:03;;;;;;;64.22;29.60;;;;;;;10.68;47.92;94987.41;5030359;28;20033;-74
2022/03/29 03:13:29;;;;;;;70.07;27.95;;;;;;;10.63;48.40;94993.28;5029209;28;20401;-75
2022/03/29 03:15:54;;;;;;;68.30;29.33;;;;;;;10.55;48.11;94985.81;5029650;28;20045;-76
2022/03/29 03:18:19;;;;;;;63.50;24.38;;;;;;;10.48;48.22;94985.16;5029275;28;20044;-75
2022/03/29 03:20:45;;;;;;;61.00;25.95;;;;;;;10.42;48.99;94980.88;5030141;28;20432;-74
2022/03/29 03:23:10;;;;;;;49.40;25.77;;;;;;;10.38;49.35;94975.31;5028993;28;20030;-74
2022/03/29 03:25:36;;;;;;;48.65;22.95;;;;;;;10.39;48.96;94984.69;5028950;28;20022;-75
2022/03/29 03:28:01;;;;;;;50.45;23.27;;;;;;;10.39;49.82;94976.09;5029775;28;20030;-75
2022/03/29 03:30:27;;;;;;;62.25;25.08;;;;;;;10.43;49.31;94982.47;5011185;28;20105;-75
2022/03/29 03:32:54;;;;;;;57.38;28.02;;;;;;;10.39;49.10;94987.28;5028035;28;20497;-75
2022/03/29 03:35:19;;;;;;;45.55;23.55;;;;;;;10.41;49.72;94977.50;5028553;28;20080;-75
2022/03/29 03:37:45;;;;;;;77.57;35.78;;;;;;;10.38;49.76;94975.31;5012142;28;20503;-75
2022/03/29 03:40:10;;;;;;;71.15;35.55;;;;;;;10.24;49.61;94976.53;5012404;28;20036;-75
2022/03/29 03:42:37;;;;;;;63.40;34.65;;;;;;;10.22;49.39;94976.00;5012250;28;20029;-75
2022/03/29 03:45:04;;;;;;;101.28;43.25;;;;;;;10.13;50.07;94983.31;4995887;28;20033;-74
2022/03/29 03:47:30;;;;;;;84.18;37.22;;;;;;;10.07;50.48;94979.00;5012250;28;20033;-75
2022/03/29 03:49:55;;;;;;;64.25;36.15;;;;;;;10.14;50.01;94984.88;5028201;28;20041;-74
2022/03/29 03:52:21;;;;;;;78.72;40.03;;;;;;;10.07;49.87;94979.00;5028609;28;20033;-75
2022/03/29 03:54:46;;;;;;;76.45;40.92;;;;;;;10.04;50.27;94982.03;5012080;28;20429;-75
2022/03/29 03:57:12;;;;;;;98.63;51.95;;;;;;;10.05;50.62;94983.63;5011583;28;20436;-75
2022/03/29 03:59:37;;;;;;;98.32;47.95;;;;;;;9.99;50.29;94983.75;5028607;28;20029;-75
2022/03/29 04:02:03;;;;;;;102.82;49.22;;;;;;;9.97;50.55;94989.16;5029118;28;20103;-75
2022/03/29 04:04:29;;;;;;;113.60;57.20;;;;;;;9.89;50.98;94981.66;5011972;28;20405;-75
2022/03/29 04:06:54;;;;;;;86.47;43.10;;;;;;;9.92;51.36;94987.22;5012194;28;20033;-76
2022/03/29 04:09:20;;;;;;;42.47;22.63;;;;;;;9.96;50.97;94990.19;5028519;28;20481;-76
2022/03/29 04:11:46;;;;;;;55.75;28.60;;;;;;;10.01;51.50;94990.28;5011455;28;20398;-76
2022/03/29 04:14:11;;;;;;;70.50;28.75;;;;;;;9.97;50.55;94985.78;5028054;28;20080;-75
2022/03/29 04:16:37;;;;;;;64.10;31.60;;;;;;;9.95;50.73;94986.00;5011761;28;20063;-75
2022/03/29 04:19:02;;;;;;;50.28;26.75;;;;;;;9.88;51.22;94977.50;5044412;28;20056;-75
2022/03/29 04:21:28;;;;;;;82.35;41.03;;;;;;;9.91;50.41;94979.63;5011444;28;20056;-75
2022/03/29 04:23:53;;;;;;;51.97;27.50;;;;;;;9.84;51.27;94982.34;5010622;28;20033;-75
2022/03/29 04:26:19;;;;;;;55.75;29.95;;;;;;;9.94;50.63;94984.41;5027827;28;20093;-74
2022/03/29 04:28:44;;;;;;;74.05;38.65;;;;;;;9.99;51.06;94984.53;5026813;28;20128;-75
2022/03/29 04:31:10;;;;;;;83.72;33.05;;;;;;;10.01;50.08;94981.69;5028986;28;20075;-75
2022/03/29 04:33:35;;;;;;;45.40;22.60;;;;;;;10.09;50.73;94984.00;5027777;28;20584;-75
2022/03/29 04:36:01;;;;;;;49.25;24.90;;;;;;;10.16;50.35;94987.25;5027773;28;20026;-75
2022/03/29 04:38:27;;;;;;;56.22;29.42;;;;;;;10.28;50.01;94984.72;5011130;28;20044;-75
2022/03/29 04:40:53;;;;;;;59.95;27.15;;;;;;;10.36;50.16;94982.56;5029001;28;20034;-75
2022/03/29 04:43:18;;;;;;;84.93;36.00;;;;;;;10.50;49.37;94988.31;5027646;28;20037;-75
2022/03/29 04:45:43;;;;;;;62.75;24.75;;;;;;;10.65;49.42;94982.66;5015025;28;20029;-78
2022/03/29 04:48:10;;;;;;;59.65;26.55;;;;;;;10.75;48.77;94980.28;5030707;28;20032;-77
2022/03/29 04:50:36;;;;;;;56.33;30.20;;;;;;;10.81;48.70;94985.38;5035401;28;20030;-83
2022/03/29 04:53:01;;;;;;;45.17;23.25;;;;;;;10.90;48.62;94977.19;5018284;28;20036;-77
2022/03/29 04:55:27;;;;;;;43.55;24.13;;;;;;;10.99;47.82;94983.63;5034769;28;20040;-79
2022/03/29 04:57:52;;;;;;;56.40;25.83;;;;;;;11.15;47.58;94972.50;5028969;28;20025;-79
2022/03/29 05:00:20;;;;;;;49.95;22.92;;;;;;;11.31;47.09;94974.38;5032388;28;20038;-78
2022/03/29 05:02:46;;;;;;;43.33;22.00;;;;;;;11.58;46.69;94973.81;4999612;28;20468;-78
2022/03/29 05:05:12;;;;;;;48.83;22.27;;;;;;;12.04;45.73;94980.63;5032584;28;20033;-76
2022/03/29 05:07:37;;;;;;;44.53;18.80;;;;;;;12.45;44.24;94979.44;5030094;28;20037;-76
2022/03/29 05:10:04;;;;;;;42.53;19.80;;;;;;;12.99;42.78;94978.84;5031665;28;20112;-77
2022/03/29 05:12:29;;;;;;;44.47;19.38;;;;;;;13.57;42.07;94969.63;5016028;28;20068;-77
2022/03/29 05:14:58;;;;;;;43.78;20.42;;;;;;;14.28;40.04;94971.00;5013834;28;20029;-77
2022/03/29 05:17:23;;;;;;;54.60;21.52;;;;;;;15.10;38.34;94974.13;5030589;28;20048;-77
2022/03/29 05:19:49;;;;;;;43.13;19.27;;;;;;;16.08;36.63;94972.31;5031491;28;20120;-76
2022/03/29 05:22:14;;;;;;;46.50;19.40;;;;;;;16.99;34.88;94970.66;5030060;28;20059;-78
2022/03/29 05:24:40;;;;;;;41.28;19.77;;;;;;;17.85;33.01;94965.00;5003797;28;20099;-77
2022/03/29 05:27:06;;;;;;;54.88;20.08;;;;;;;18.60;32.12;94962.84;5033256;28;20030;-78
2022/03/29 05:29:31;;;;;;;48.13;19.83;;;;;;;19.23;30.87;94964.56;5034781;28;20069;-78
2022/03/29 05:31:58;;;;;;;48.83;19.90;;;;;;;19.77;29.76;94966.78;4998597;28;20026;-78
2022/03/29 05:34:23;;;;;;;62.28;21.23;;;;;;;20.29;28.75;94964.97;5031920;28;20036;-77
2022/03/29 05:36:50;;;;;;;60.15;20.40;;;;;;;20.47;28.20;94965.22;5010179;28;20041;-77
2022/03/29 05:39:16;;;;;;;59.92;19.63;;;;;;;20.64;28.48;94958.31;5028174;28;20017;-76
2022/03/29 05:41:42;;;;;;;45.25;20.38;;;;;;;20.66;28.18;94960.66;5029164;28;20041;-77
2022/03/29 05:44:07;;;;;;;47.28;19.65;;;;;;;20.85;27.68;94961.41;4994017;28;20025;-76
2022/03/29 05:49:19;;;;;;;39.97;20.80;;;;;;;20.82;28.10;94966.47;5026556;28;20483;-77
2022/03/29 05:51:45;;;;;;;49.97;21.05;;;;;;;20.84;27.11;94959.84;5042674;28;20060;-77
2022/03/29 05:54:10;;;;;;;59.88;23.60;;;;;;;20.62;27.63;94951.75;4993881;28;20060;-77
2022/03/29 05:56:36;;;;;;;52.60;19.35;;;;;;;20.46;27.63;94958.38;5025886;28;20026;-76
2022/03/29 05:59:01;;;;;;;47.80;18.85;;;;;;;20.56;27.84;94963.50;5027541;28;20083;-77
2022/03/29 06:01:27;;;;;;;68.60;25.15;;;;;;;20.64;27.89;94960.97;5028858;28;20034;-76
2022/03/29 06:03:52;;;;;;;45.35;20.92;;;;;;;20.48;27.82;94958.88;5010663;28;20029;-76
2022/03/29 06:06:17;;;;;;;43.33;19.95;;;;;;;20.43;27.87;94953.69;5029361;28;20033;-77
2022/03/29 06:08:43;;;;;;;37.03;18.02;;;;;;;20.49;27.88;94960.44;5029084;28;20712;-77
2022/03/29 06:11:08;;;;;;;34.60;17.77;;;;;;;20.64;28.04;94952.25;5013310;28;20034;-76
2022/03/29 06:13:34;;;;;;;31.15;16.88;;;;;;;20.70;27.31;94953.75;5028552;28;20477;-76
2022/03/29 06:16:00;;;;;;;36.50;17.35;;;;;;;20.74;27.41;94951.28;5011594;28;20116;-76
2022/03/29 06:18:25;;;;;;;41.90;15.93;;;;;;;20.74;27.04;94956.59;5013350;28;20036;-76
2022/03/29 06:20:51;;;;;;;43.70;16.95;;;;;;;20.89;27.02;94951.81;5028973;28;20087;-76
2022/03/29 06:23:16;;;;;;;40.85;17.42;;;;;;;21.09;26.73;94952.50;5031109;28;20045;-76
2022/03/29 06:25:42;;;;;;;39.00;16.73;;;;;;;21.27;26.82;94951.63;5011140;28;20033;-76
2022/03/29 06:28:10;;;;;;;35.03;14.93;;;;;;;21.47;26.69;94950.41;5011891;28;20116;-78
2022/03/29 06:30:36;;;;;;;31.85;15.30;;;;;;;21.43;25.66;94944.94;5013664;28;20037;-77
2022/03/29 06:33:02;;;;;;;24.70;13.18;;;;;;;21.54;25.62;94951.59;5013564;28;20489;-78
2022/03/29 06:35:28;;;;;;;33.15;13.88;;;;;;;21.72;25.41;94935.88;5029522;28;20510;-77
2022/03/29 06:37:55;;;;;;;22.77;12.50;;;;;;;21.82;25.46;94933.00;5014567;28;20053;-78
2022/03/29 06:40:21;;;;;;;33.20;13.63;;;;;;;21.87;25.15;94940.84;5037295;28;20026;-78
2022/03/29 06:42:47;;;;;;;23.33;12.60;;;;;;;22.09;25.02;94934.78;5039936;28;20049;-78
2022/03/29 06:45:12;;;;;;;23.70;13.25;;;;;;;22.23;24.83;94940.81;5016202;28;20110;-78
2022/03/29 06:47:38;;;;;;;35.53;14.30;;;;;;;22.29;24.94;94944.91;5019229;28;20112;-78
2022/03/29 06:50:04;;;;;;;27.35;12.38;;;;;;;22.39;24.62;94938.56;5039021;28;20065;-78
2022/03/29 06:52:37;;;;;;;36.08;14.52;;;;;;;22.36;24.76;94933.88;5018900;28;20033;-77
2022/03/29 06:55:03;;;;;;;25.48;13.45;;;;;;;22.26;24.49;94934.13;5012813;28;20033;-77
2022/03/29 06:57:29;;;;;;;31.10;13.88;;;;;;;22.34;24.86;94930.75;4996762;28;20586;-77
2022/03/29 06:59:55;;;;;;;35.67;13.98;;;;;;;22.39;24.65;94927.97;5030872;28;20133;-77
2022/03/29 07:02:20;;;;;;;31.17;13.93;;;;;;;22.55;24.68;94931.81;5013299;28;20039;-77
2022/03/29 07:04:46;;;;;;;30.80;14.18;;;;;;;22.71;24.61;94925.03;5030820;28;20038;-76
2022/03/29 07:07:12;;;;;;;28.13;14.02;;;;;;;22.70;24.14;94934.06;5028783;28;20489;-76
2022/03/29 07:12:21;;;;;;;27.23;14.10;;;;;;;22.69;24.46;94932.50;5030994;28;20126;-76
2022/03/29 07:14:47;;;;;;;29.63;14.27;;;;;;;22.69;24.05;94931.72;5029172;28;20033;-76
2022/03/29 07:17:15;;;;;;;33.83;14.00;;;;;;;22.73;24.42;94914.13;5030078;28;20034;-76
2022/03/29 07:19:41;;;;;;;36.33;14.43;;;;;;;22.68;24.16;94909.72;5012516;28;20466;-76
2022/03/29 07:22:06;;;;;;;25.67;11.98;;;;;;;22.72;23.94;94913.34;5028861;28;20037;-76
2022/03/29 07:27:05;;;;;;;54.38;8.35;;;;;;;21.55;24.70;94887.00;4515287;22;20416;-76
2022/03/29 07:29:32;;;;;;;44.30;9.18;;;;;;;21.39;25.02;94906.94;5063979;28;20036;-76
2022/03/29 07:31:58;;;;;;;40.63;7.28;;;;;;;21.18;25.23;94905.78;5067490;28;20044;-77
2022/03/29 07:34:25;;;;;;;62.08;8.55;;;;;;;20.66;25.82;94898.06;5069321;28;20033;-77
2022/03/29 07:36:51;;;;;;;51.72;7.85;;;;;;;20.49;25.90;94892.53;5070330;28;20082;-77
2022/03/29 07:39:17;;;;;;;73.95;7.05;;;;;;;20.18;25.92;94900.19;5051621;28;20017;-77
2022/03/29 07:41:43;;;;;;;47.80;7.50;;;;;;;20.11;26.55;94905.06;5067941;28;20036;-77
2022/03/29 07:44:08;;;;;;;47.45;7.47;;;;;;;20.00;26.66;94898.34;5051558;28;20031;-76
2022/03/29 07:46:42;;;;;;;42.47;10.00;;;;;;;19.90;27.09;94882.69;5050603;28;20033;-76
2022/03/29 07:49:07;;;;;;;46.45;6.85;;;;;;;19.51;26.96;94891.69;5033781;28;20033;-76
2022/03/29 07:51:33;;;;;;;30.25;6.35;;;;;;;19.06;28.31;94907.06;5069733;28;20055;-76
2022/03/29 07:54:03;;;;;;;24.13;6.50;;;;;;;18.91;28.20;94901.97;5051737;28;20664;-77
2022/03/29 07:56:29;;;;;;;28.67;7.22;;;;;;;18.71;28.53;94886.34;5067225;28;20028;-77
2022/03/29 07:58:56;;;;;;;104.47;8.07;;;;;;;18.25;28.74;94871.03;5050681;28;20093;-76
2022/03/29 08:01:22;;;;;;;56.45;8.20;;;;;;;17.95;29.27;94883.38;5051115;28;20054;-76
2022/03/29 08:03:47;;;;;;;37.55;6.50;;;;;;;18.00;29.24;94888.59;5034572;28;20085;-77
2022/03/29 08:06:13;;;;;;;33.55;6.38;;;;;;;17.95;29.50;94877.34;5017720;28;20033;-77
2022/03/29 08:08:40;;;;;;;42.92;6.68;;;;;;;17.89;29.60;94881.84;5033760;28;20032;-77
2022/03/29 08:11:08;;;;;;;41.28;6.55;;;;;;;17.78;30.09;94882.22;5033805;28;20028;-77
2022/03/29 08:13:36;;;;;;;27.17;7.07;;;;;;;17.85;29.81;94883.47;5051532;28;20483;-77
2022/03/29 08:16:02;;;;;;;34.33;8.10;;;;;;;17.94;29.96;94884.44;5068680;28;20119;-77
2022/03/29 08:18:28;;;;;;;26.70;7.07;;;;;;;17.96;29.95;94889.44;5051091;28;20051;-76
2022/03/29 08:20:53;;;;;;;28.38;7.18;;;;;;;17.99;29.56;94873.88;5051890;28;20170;-77
2022/03/29 08:23:19;;;;;;;30.48;6.03;;;;;;;18.04;30.00;94867.78;5069403;28;20099;-76
2022/03/29 08:25:45;;;;;;;10.65;5.20;;;;;;;18.11;29.85;94870.88;5033038;28;20032;-76
2022/03/29 08:28:10;;;;;;;20.25;6.35;;;;;;;18.27;29.92;94874.16;5040931;28;20127;-76
2022/03/29 08:30:36;;;;;;;29.50;6.97;;;;;;;18.34;29.59;94858.81;5016561;28;20109;-77
2022/03/29 08:33:02;;;;;;;32.95;6.80;;;;;;;18.33;29.64;94857.25;5033621;28;20032;-76
2022/03/29 08:35:28;;;;;;;35.10;7.30;;;;;;;18.15;29.41;94848.22;5243462;23;20049;-77
2022/03/29 08:37:54;;;;;;;22.40;6.57;;;;;;;18.27;29.47;94845.22;5048738;28;20037;-77
2022/03/29 08:40:22;;;;;;;17.05;6.10;;;;;;;18.40;29.25;94836.66;5015117;28;20076;-77
2022/03/29 08:42:48;;;;;;;15.27;6.32;;;;;;;18.35;29.54;94839.31;5028614;28;20033;-77
2022/03/29 08:45:15;;;;;;;27.77;7.22;;;;;;;18.33;29.70;94841.44;5012638;28;20033;-79
2022/03/29 08:47:42;;;;;;;40.60;7.32;;;;;;;18.39;29.59;94832.44;4994838;28;20509;-77
2022/03/29 08:50:08;;;;;;;39.65;8.88;;;;;;;18.52;28.97;94837.03;4993325;28;20064;-77
2022/03/29 08:52:34;;;;;;;17.85;6.40;;;;;;;18.57;28.93;94826.44;5027366;28;20048;-77
2022/03/29 08:55:01;;;;;;;26.73;7.00;;;;;;;18.52;29.03;94823.06;4994328;28;20037;-77
2022/03/29 08:57:26;;;;;;;25.95;7.38;;;;;;;18.57;28.93;94826.44;5029198;28;20036;-77
2022/03/29 08:59:51;;;;;;;18.98;6.18;;;;;;;18.61;28.88;94816.13;5028953;28;20037;-78
2022/03/29 09:02:17;;;;;;;22.83;6.78;;;;;;;18.71;28.98;94812.59;5027619;28;20037;-77
2022/03/29 09:05:05;;;;;;;26.83;8.95;;;;;;;18.70;29.51;94811.03;5010692;28;20033;-77
2022/03/29 09:10:03;;;;;;;26.67;6.65;;;;;;;18.39;29.49;94795.59;5890073;22;20481;-77
2022/03/29 09:12:28;;;;;;;;;;;;;;;18.30;29.61;94811.19;5048665;28;20029;-77
2022/03/29 09:14:59;;;;;;;23.20;6.93;;;;;;;18.30;29.71;94795.41;5034251;28;20484;-77
2022/03/29 09:17:35;;;;;;;38.42;7.22;;;;;;;18.35;29.67;94802.47;4994046;28;20288;-77
2022/03/29 09:20:02;;;;;;;21.35;7.13;;;;;;;18.37;29.36;94792.44;5010903;28;20041;-77
2022/03/29 09:22:39;;;;;;;17.17;7.03;;;;;;;18.40;29.43;94786.63;5010783;28;20045;-77
2022/03/29 09:25:05;;;;;;;30.35;7.50;;;;;;;18.44;28.98;94774.47;5026494;28;20033;-77
2022/03/29 09:27:47;;;;;;;25.63;6.50;;;;;;;18.44;28.67;94785.00;5027796;28;20025;-77
2022/03/29 09:30:12;;;;;;;13.45;5.57;;;;;;;18.43;28.67;94783.44;5030174;28;20037;-80
2022/03/29 09:33:07;;;;;;;31.25;7.03;;;;;;;18.49;28.89;94774.38;5033337;28;20037;-77
2022/03/29 09:35:33;;;;;;;16.92;6.25;;;;;;;18.44;28.51;94771.03;5028791;28;20045;-76
2022/03/29 09:38:01;;;;;;;18.75;6.32;;;;;;;18.55;28.74;94775.91;5015906;28;20079;-77
2022/03/29 09:40:38;;;;;;;22.63;6.22;;;;;;;18.68;28.50;94768.41;5031513;28;20044;-77
2022/03/29 09:43:08;;;;;;;36.47;7.65;;;;;;;18.65;29.25;94761.84;5017424;28;20112;-77
2022/03/29 09:45:47;;;;;;;29.90;7.15;;;;;;;18.71;28.94;94757.28;5016811;28;20105;-77
2022/03/29 09:48:23;;;;;;;30.80;9.30;;;;;;;18.78;28.65;94755.88;5034526;28;20048;-77
2022/03/29 09:50:51;;;;;;;17.05;6.78;;;;;;;18.66;28.94;94760.00;5014360;28;20072;-77
2022/03/29 09:53:39;;;;;;;19.48;7.45;;;;;;;18.66;29.40;94760.00;5014364;28;20041;-77
2022/03/29 09:56:10;;;;;;;39.97;7.25;;;;;;;18.70;29.43;94750.44;5033473;28;20048;-78
2022/03/29 09:58:36;;;;;;;26.23;6.28;;;;;;;18.54;29.01;94740.09;5031578;28;20061;-77
2022/03/29 10:01:02;;;;;;;20.27;6.13;;;;;;;18.45;29.01;94746.28;5014770;28;20582;-77
2022/03/29 10:03:27;;;;;;;18.52;6.75;;;;;;;18.40;29.49;94747.13;5014662;28;20033;-77
2022/03/29 10:05:54;;;;;;;26.80;7.45;;;;;;;18.46;28.88;94737.31;4998545;28;20493;-77
2022/03/29 10:11:11;;;;;;;29.52;6.97;;;;;;;18.51;28.69;94743.28;5030375;28;20511;-77
2022/03/29 10:13:37;;;;;;;29.27;7.22;;;;;;;18.37;29.75;94716.09;5013816;28;20033;-77
2022/03/29 10:16:02;;;;;;;27.30;6.68;;;;;;;18.33;29.67;94725.63;5030080;28;20025;-77
2022/03/29 10:18:28;;;;;;;24.17;5.85;;;;;;;18.33;29.16;94717.72;5029548;28;20048;-77
2022/03/29 10:20:55;;;;;;;24.65;7.38;;;;;;;18.32;29.37;94721.41;5030701;28;20029;-77
2022/03/29 10:23:24;;;;;;;18.80;6.75;;;;;;;18.28;29.31;94717.78;5030397;28;20045;-77
2022/03/29 10:25:53;;;;;;;29.05;6.18;;;;;;;18.23;29.59;94710.75;5013715;28;20095;-77
2022/03/29 10:28:20;;;;;;;31.10;7.43;;;;;;;18.35;29.77;94712.16;5047539;28;20400;-78
2022/03/29 10:30:45;;;;;;;40.67;6.90;;;;;;;18.41;29.02;94711.84;5014475;28;20036;-78
2022/03/29 10:33:17;;;;;;;26.40;7.45;;;;;;;18.42;29.22;94717.88;5031614;28;20037;-77
2022/03/29 10:36:19;;;;;;;27.15;6.13;;;;;;;18.44;28.43;94716.53;5030794;28;20108;-77
2022/03/29 10:38:48;;;;;;;30.38;6.80;;;;;;;18.43;28.76;94714.97;5049729;28;20494;-79
2022/03/29 10:41:26;;;;;;;20.98;6.85;;;;;;;18.37;28.81;94700.28;5034856;28;20444;-85
2022/03/29 10:45:57;;;;;;;27.27;6.35;;;;;;;18.39;28.24;94687.66;5171649;27;20186;-77
2022/03/29 10:48:23;;;;;;;44.92;7.00;;;;;;;18.36;28.00;94685.56;5169380;27;20462;-78
2022/03/29 10:50:54;;;;;;;21.42;7.15;;;;;;;18.49;28.26;94684.09;5157070;27;20473;-77
2022/03/29 10:56:16;;;;;;;37.97;6.95;;;;;;;18.59;27.59;94682.09;5134192;22;20048;-77
2022/03/29 10:59:04;;;;;;;36.95;6.00;;;;;;;18.71;29.52;94680.91;5102794;28;20084;-77
2022/03/29 11:01:33;;;;;;;29.23;7.57;;;;;;;18.80;28.20;94672.06;5068179;28;20028;-77
2022/03/29 11:04:27;;;;;;;20.10;6.40;;;;;;;18.83;27.69;94670.72;5067736;28;20046;-77
2022/03/29 11:07:04;;;;;;;33.67;8.73;;;;;;;18.90;28.17;94665.88;5053677;28;20040;-77
2022/03/29 11:09:30;;;;;;;31.30;7.22;;;;;;;18.98;27.95;94662.59;5086960;28;20067;-77
2022/03/29 11:11:55;;;;;;;30.73;9.00;;;;;;;19.04;27.84;94656.19;5069010;28;20044;-77
2022/03/29 11:14:30;;;;;;;25.20;5.93;;;;;;;19.18;27.91;94650.91;5058761;28;20032;-79
2022/03/29 11:17:11;;;;;;;31.55;7.13;;;;;;;19.14;27.93;94640.19;5083656;28;20063;-76
2022/03/29 11:19:47;;;;;;;32.45;8.27;;;;;;;19.30;27.21;94642.56;5084857;28;20033;-76
2022/03/29 11:22:22;;;;;;;27.95;7.03;;;;;;;19.41;27.05;94639.47;5065534;28;20055;-76
2022/03/29 11:24:52;;;;;;;23.63;6.88;;;;;;;19.43;27.17;94626.78;5082061;28;20063;-76
2022/03/29 11:27:28;;;;;;;22.65;6.95;;;;;;;19.45;27.85;94618.56;5046640;28;20032;-77
2022/03/29 11:29:54;;;;;;;22.50;7.07;;;;;;;19.34;27.80;94633.00;5068829;28;20053;-77
2022/03/29 11:32:19;;;;;;;24.42;6.35;;;;;;;19.34;27.42;94617.16;5027853;28;20040;-77
2022/03/29 11:34:45;;;;;;;21.27;6.30;;;;;;;19.21;27.26;94623.22;5034583;28;20457;-78
2022/03/29 11:37:29;;;;;;;18.88;5.38;;;;;;;19.07;27.25;94618.69;5051369;28;20020;-77
2022/03/29 11:39:55;;;;;;;30.23;6.75;;;;;;;19.14;27.35;94603.28;5090672;28;20090;-77
2022/03/29 11:42:23;;;;;;;21.70;5.45;;;;;;;19.17;26.99;94607.97;5039093;28;20032;-78